Philomath, Indiana
Current Conditions -  °F | °C
As of 4:35 AM on Saturday 25 Oct 2014 (Local Time) from KI67 Reporting Station
Broken Clouds Broken Clouds  
Wind Chill: 46°   Ceiling: 11000
Heat Index: 46°   Visibility: 10mi
Dew Point: 43°   Wind: 3mph
Humidity: 87%   Direction: 190°S
Pressure: 30"   Gusts: NA
Location:  39.6926°N, 84.9821°W
Report Text: KI67 250835Z AUTO 19003KT 10SM BKN110 08/06 A3000 RMK AO1
Loading
Personal Weather Stations






























Interactive Weather Map
Tropical Storm Tracking
New forecast layout! Learn more

10-Day Weather Forecast

Advertisements
Track Severe Weather on mobile